Time,TemperatureF,DewpointF,PressureIn,WindDirection,WindDirectionDegrees,WindSpeedMPH,WindSpeedGustMPH,Humidity,HourlyPrecipIn,Conditions,Clouds,dailyrainin,SolarRadiationWatts/m^2,SoftwareType,DateUTC
2013-10-21 00:04:00,50.0,42.0,-100.00,SE,135,2.0,5.0,75,0.00,,,0.00,0.000000,,2013-10-21 05:04:00,
2013-10-21 00:43:00,48.0,42.0,-100.00,SE,132,2.0,5.0,79,0.00,,,0.00,0.000000,,2013-10-21 05:43:00,
2013-10-21 00:52:00,48.0,42.0,-100.00,SE,132,2.0,5.0,79,0.00,,,0.00,0.000000,,2013-10-21 05:52:00,
2013-10-21 01:02:00,48.0,42.0,-100.00,SE,132,2.0,5.0,79,0.00,,,0.00,0.000000,,2013-10-21 06:02:00,
2013-10-21 01:42:00,47.0,42.0,-100.00,SE,128,1.0,3.0,83,0.00,,,0.00,0.000000,,2013-10-21 06:42:00,
2013-10-21 01:52:00,47.0,42.0,-100.00,SE,128,1.0,3.0,83,0.00,,,0.00,0.000000,,2013-10-21 06:52:00,
2013-10-21 02:02:00,47.0,42.0,-100.00,SE,128,1.0,3.0,83,0.00,,,0.00,0.000000,,2013-10-21 07:02:00,
2013-10-21 02:43:00,44.0,42.0,-100.00,WNW,300,0.0,2.0,91,0.00,,,0.00,0.000000,,2013-10-21 07:43:00,
2013-10-21 02:52:00,44.0,42.0,-100.00,WNW,300,0.0,2.0,91,0.00,,,0.00,0.000000,,2013-10-21 07:52:00,
2013-10-21 03:03:00,44.0,42.0,-100.00,WNW,300,0.0,2.0,91,0.00,,,0.00,0.000000,,2013-10-21 08:03:00,
2013-10-21 03:42:00,44.0,42.0,-100.00,ESE,115,1.0,2.0,91,0.00,,,0.00,0.000000,,2013-10-21 08:42:00,
2013-10-21 03:52:00,44.0,42.0,-100.00,ESE,115,1.0,2.0,91,0.00,,,0.00,0.000000,,2013-10-21 08:52:00,
2013-10-21 04:02:00,44.0,42.0,-100.00,ESE,115,1.0,2.0,91,0.00,,,0.00,0.000000,,2013-10-21 09:02:00,
2013-10-21 04:43:00,44.0,41.0,-100.00,ESE,110,1.0,4.0,90,0.00,,,0.00,0.000000,,2013-10-21 09:43:00,
2013-10-21 04:54:00,44.0,41.0,-100.00,ESE,110,1.0,4.0,90,0.00,,,0.00,0.000000,,2013-10-21 09:54:00,
2013-10-21 05:03:00,44.0,41.0,-100.00,ESE,110,1.0,4.0,90,0.00,,,0.00,0.000000,,2013-10-21 10:03:00,
2013-10-21 05:43:00,43.0,41.0,-100.00,SE,124,0.0,3.0,92,0.00,,,0.00,0.000000,,2013-10-21 10:43:00,
2013-10-21 05:52:00,43.0,41.0,-100.00,SE,124,0.0,3.0,92,0.00,,,0.00,0.000000,,2013-10-21 10:52:00,
2013-10-21 06:02:00,43.0,41.0,-100.00,SE,124,0.0,3.0,92,0.00,,,0.00,0.000000,,2013-10-21 11:02:00,
2013-10-21 06:42:00,43.0,41.0,-100.00,ESE,108,1.0,3.0,93,0.00,,,0.00,0.000000,,2013-10-21 11:42:00,
2013-10-21 06:52:00,43.0,41.0,-100.00,ESE,108,1.0,3.0,93,0.00,,,0.00,0.000000,,2013-10-21 11:52:00,
2013-10-21 07:01:00,43.0,41.0,-100.00,ESE,108,1.0,3.0,93,0.00,,,0.00,0.000000,,2013-10-21 12:01:00,
2013-10-21 07:42:00,44.0,42.0,-100.00,ESE,119,1.0,4.0,92,0.00,,,0.00,0.000000,,2013-10-21 12:42:00,
2013-10-21 07:52:00,44.0,42.0,-100.00,ESE,119,1.0,4.0,92,0.00,,,0.00,0.000000,,2013-10-21 12:52:00,
2013-10-21 08:02:00,44.0,42.0,-100.00,ESE,119,1.0,4.0,92,0.00,,,0.00,0.000000,,2013-10-21 13:02:00,
2013-10-21 08:42:00,45.0,43.0,-100.00,SW,220,2.0,5.0,91,0.00,,,0.00,19.000000,,2013-10-21 13:42:00,
2013-10-21 08:52:00,45.0,43.0,-100.00,SW,220,2.0,5.0,91,0.00,,,0.00,19.000000,,2013-10-21 13:52:00,
2013-10-21 09:02:00,45.0,43.0,-100.00,SW,220,2.0,5.0,91,0.00,,,0.00,19.000000,,2013-10-21 14:02:00,
2013-10-21 09:42:00,50.0,45.0,-100.00,SSW,195,2.0,6.0,82,0.00,,,0.00,111.000000,,2013-10-21 14:42:00,
2013-10-21 09:52:00,50.0,45.0,-100.00,SSW,195,2.0,6.0,82,0.00,,,0.00,111.000000,,2013-10-21 14:52:00,
2013-10-21 10:02:00,50.0,45.0,-100.00,SSW,195,2.0,6.0,82,0.00,,,0.00,111.000000,,2013-10-21 15:02:00,
2013-10-21 10:43:00,55.0,47.0,-100.00,WSW,239,4.0,8.0,73,0.00,,,0.00,307.000000,,2013-10-21 15:43:00,
2013-10-21 10:54:00,55.0,47.0,-100.00,WSW,239,4.0,8.0,73,0.00,,,0.00,307.000000,,2013-10-21 15:54:00,
2013-10-21 11:03:00,55.0,47.0,-100.00,WSW,239,4.0,8.0,73,0.00,,,0.00,307.000000,,2013-10-21 16:03:00,
2013-10-21 11:43:00,60.0,47.0,-100.00,WSW,244,8.0,15.0,62,0.00,,,0.00,465.000000,,2013-10-21 16:43:00,
2013-10-21 11:54:00,60.0,47.0,-100.00,WSW,244,8.0,15.0,62,0.00,,,0.00,465.000000,,2013-10-21 16:54:00,
2013-10-21 12:02:00,60.0,47.0,-100.00,WSW,244,8.0,15.0,62,0.00,,,0.00,465.000000,,2013-10-21 17:02:00,
2013-10-21 12:43:00,64.0,48.0,-100.00,SSW,199,4.0,15.0,56,0.00,,,0.00,595.000000,,2013-10-21 17:43:00,
2013-10-21 12:53:00,64.0,48.0,-100.00,SSW,199,4.0,15.0,56,0.00,,,0.00,595.000000,,2013-10-21 17:53:00,
2013-10-21 13:02:00,64.0,48.0,-100.00,SSW,199,4.0,15.0,56,0.00,,,0.00,595.000000,,2013-10-21 18:02:00,
2013-10-21 13:42:00,64.0,48.0,-100.00,SW,234,4.0,14.0,57,0.00,,,0.00,417.000000,,2013-10-21 18:42:00,
2013-10-21 13:52:00,64.0,48.0,-100.00,SW,234,4.0,14.0,57,0.00,,,0.00,417.000000,,2013-10-21 18:52:00,
2013-10-21 14:02:00,64.0,48.0,-100.00,SW,234,4.0,14.0,57,0.00,,,0.00,417.000000,,2013-10-21 19:02:00,
2013-10-21 14:42:00,65.0,47.0,-100.00,WSW,249,4.0,12.0,53,0.00,,,0.00,612.000000,,2013-10-21 19:42:00,
2013-10-21 14:52:00,65.0,47.0,-100.00,WSW,249,4.0,12.0,53,0.00,,,0.00,612.000000,,2013-10-21 19:52:00,
2013-10-21 15:02:00,65.0,47.0,-100.00,WSW,249,4.0,12.0,53,0.00,,,0.00,612.000000,,2013-10-21 20:02:00,
2013-10-21 15:43:00,65.0,50.0,-100.00,WSW,250,5.0,10.0,58,0.00,,,0.00,306.000000,,2013-10-21 20:43:00,
2013-10-21 15:53:00,65.0,50.0,-100.00,WSW,250,5.0,10.0,58,0.00,,,0.00,306.000000,,2013-10-21 20:53:00,
2013-10-21 16:03:00,65.0,50.0,-100.00,WSW,250,5.0,10.0,58,0.00,,,0.00,306.000000,,2013-10-21 21:03:00,
2013-10-21 16:44:00,63.0,48.0,-100.00,WSW,245,4.0,10.0,59,0.00,,,0.00,216.000000,,2013-10-21 21:44:00,
2013-10-21 16:54:00,63.0,48.0,-100.00,WSW,245,4.0,10.0,59,0.00,,,0.00,216.000000,,2013-10-21 21:54:00,
2013-10-21 17:04:00,63.0,48.0,-100.00,WSW,245,4.0,10.0,59,0.00,,,0.00,216.000000,,2013-10-21 22:04:00,
2013-10-21 17:44:00,62.0,51.0,-100.00,WSW,253,3.0,9.0,66,0.00,,,0.00,114.000000,,2013-10-21 22:44:00,
2013-10-21 17:53:00,62.0,51.0,-100.00,WSW,253,3.0,9.0,66,0.00,,,0.00,114.000000,,2013-10-21 22:53:00,
2013-10-21 18:03:00,62.0,51.0,-100.00,WSW,253,3.0,9.0,66,0.00,,,0.00,114.000000,,2013-10-21 23:03:00,
2013-10-21 18:42:00,57.0,47.0,-100.00,NNW,340,7.0,16.0,68,0.00,,,0.00,28.000000,,2013-10-21 23:42:00,
2013-10-21 18:53:00,57.0,47.0,-100.00,NNW,340,7.0,16.0,68,0.00,,,0.00,28.000000,,2013-10-21 23:53:00,
2013-10-21 19:02:00,57.0,47.0,-100.00,NNW,340,7.0,16.0,68,0.00,,,0.00,28.000000,,2013-10-22 00:02:00,
2013-10-21 19:42:00,55.0,47.0,-100.00,NNW,348,5.0,10.0,73,0.00,,,0.00,0.000000,,2013-10-22 00:42:00,
2013-10-21 19:53:00,55.0,47.0,-100.00,NNW,348,5.0,10.0,73,0.00,,,0.00,0.000000,,2013-10-22 00:53:00,
2013-10-21 20:03:00,55.0,47.0,-100.00,NNW,348,5.0,10.0,73,0.00,,,0.00,0.000000,,2013-10-22 01:03:00,
2013-10-21 20:42:00,53.0,47.0,-100.00,NNW,339,3.0,10.0,79,0.00,,,0.00,0.000000,,2013-10-22 01:42:00,
2013-10-21 20:53:00,53.0,47.0,-100.00,NNW,339,3.0,10.0,79,0.00,,,0.00,0.000000,,2013-10-22 01:53:00,
2013-10-21 21:02:00,53.0,47.0,-100.00,NNW,339,3.0,10.0,79,0.00,,,0.00,0.000000,,2013-10-22 02:02:00,
2013-10-21 21:43:00,53.0,47.0,-100.00,NNW,339,6.0,8.0,80,0.00,,,0.00,0.000000,,2013-10-22 02:43:00,
2013-10-21 21:52:00,53.0,47.0,-100.00,NNW,339,6.0,8.0,80,0.00,,,0.00,0.000000,,2013-10-22 02:52:00,
2013-10-21 22:03:00,53.0,47.0,-100.00,NNW,339,6.0,8.0,80,0.00,,,0.00,0.000000,,2013-10-22 03:03:00,
2013-10-21 22:45:00,51.0,42.0,-100.00,NNW,341,6.0,11.0,72,0.00,,,0.00,0.000000,,2013-10-22 03:45:00,
2013-10-21 22:55:00,51.0,42.0,-100.00,NNW,341,6.0,11.0,72,0.00,,,0.00,0.000000,,2013-10-22 03:55:00,
2013-10-21 23:05:00,51.0,42.0,-100.00,NNW,341,6.0,11.0,72,0.00,,,0.00,0.000000,,2013-10-22 04:05:00,
2013-10-21 23:43:00,50.0,42.0,-100.00,NNW,340,2.0,8.0,73,0.00,,,0.00,0.000000,,2013-10-22 04:43:00,
2013-10-21 23:55:00,50.0,42.0,-100.00,NNW,340,2.0,8.0,73,0.00,,,0.00,0.000000,,2013-10-22 04:55:00,